Time;durP1;ratioP1;P1;durP2;ratioP2;P2;SDS_P1;SDS_P2;PMS_P1;PMS_P2;Temp;Humidity;BMP_temperature;BMP_pressure;BME280_temperature;BME280_humidity;BME280_pressure;Samples;Min_cycle;Max_cycle;Signal;HPM_P1;HPM_P2
2021/04/29 00:01:43;;;;;;;15.87;14.50;;;13.10;99.90;;;;;;10510128;28;20277;-82
2021/04/29 00:06:45;;;;;;;16.50;14.97;;;13.20;99.90;;;;;;10503547;28;20710;-82
2021/04/29 00:11:46;;;;;;;15.53;14.13;;;13.10;99.90;;;;;;10488698;28;20230;-81
2021/04/29 00:16:49;;;;;;;15.93;14.67;;;13.10;99.90;;;;;;10506877;28;20213;-80
2021/04/29 00:21:51;;;;;;;16.60;15.30;;;13.10;99.90;;;;;;10488387;28;20213;-81
2021/04/29 00:26:52;;;;;;;16.93;15.53;;;13.00;99.90;;;;;;10489551;28;20216;-82
2021/04/29 00:31:55;;;;;;;15.93;14.63;;;13.10;99.90;;;;;;10508728;28;20215;-82
2021/04/29 00:36:56;;;;;;;17.30;15.73;;;13.10;99.90;;;;;;10479106;28;20374;-82
2021/04/29 00:41:58;;;;;;;16.10;14.70;;;13.20;99.90;;;;;;10491379;28;20299;-82
2021/04/29 00:47:01;;;;;;;16.23;14.93;;;13.30;99.90;;;;;;10492291;28;20235;-81
2021/04/29 00:52:03;;;;;;;15.77;14.57;;;13.30;99.90;;;;;;10504493;28;20208;-82
2021/04/29 00:57:05;;;;;;;15.10;13.80;;;13.40;99.90;;;;;;10491505;28;20217;-80
2021/04/29 01:02:09;;;;;;;16.10;14.60;;;13.40;99.90;;;;;;10512025;28;20208;-82
2021/04/29 01:07:13;;;;;;;14.60;13.10;;;13.40;99.90;;;;;;10503590;28;20227;-82
2021/04/29 01:12:20;;;;;;;13.80;12.60;;;13.40;99.90;;;;;;10499680;28;20209;-80
2021/04/29 01:17:23;;;;;;;12.80;11.80;;;13.40;99.90;;;;;;10488754;28;20262;-81
2021/04/29 01:22:25;;;;;;;12.70;11.30;;;13.40;99.90;;;;;;10490501;28;20715;-82
2021/04/29 01:27:28;;;;;;;11.20;10.27;;;13.50;99.90;;;;;;10507630;28;20644;-81
2021/04/29 01:32:30;;;;;;;11.43;10.53;;;13.60;99.90;;;;;;10488553;28;20660;-80
2021/04/29 01:37:33;;;;;;;10.73;9.73;;;13.70;99.90;;;;;;10489075;28;20231;-81
2021/04/29 01:42:36;;;;;;;8.53;7.93;;;13.70;99.90;;;;;;10508814;28;20200;-80
2021/04/29 01:47:38;;;;;;;6.90;6.50;;;13.70;99.90;;;;;;10507783;28;20315;-80
2021/04/29 01:52:40;;;;;;;6.20;5.80;;;13.80;99.90;;;;;;10490346;28;20204;-81
2021/04/29 01:57:43;;;;;;;6.20;5.80;;;13.80;99.90;;;;;;10509016;28;20220;-81
2021/04/29 02:02:44;;;;;;;5.87;5.57;;;13.90;99.90;;;;;;10510391;28;20260;-80
2021/04/29 02:07:46;;;;;;;4.87;4.57;;;13.90;99.90;;;;;;10490300;28;20247;-82
2021/04/29 02:12:54;;;;;;;4.33;4.07;;;14.00;99.90;;;;;;10510170;28;20214;-82
2021/04/29 02:18:02;;;;;;;4.33;4.13;;;13.90;99.90;;;;;;10511528;28;20315;-82
2021/04/29 02:23:09;;;;;;;3.60;3.40;;;13.90;99.90;;;;;;10492161;28;20201;-83
2021/04/29 02:28:11;;;;;;;3.93;3.73;;;13.90;99.90;;;;;;10509521;28;20311;-82
2021/04/29 02:33:14;;;;;;;3.77;3.57;;;13.90;99.90;;;;;;10505687;28;20683;-81
2021/04/29 02:38:16;;;;;;;3.33;3.20;;;13.90;99.90;;;;;;10484185;28;20231;-81
2021/04/29 02:43:19;;;;;;;3.30;3.10;;;13.90;99.90;;;;;;10468989;28;20205;-81
2021/04/29 02:48:21;;;;;;;2.80;2.70;;;13.90;99.90;;;;;;10501688;28;20315;-82
2021/04/29 02:53:23;;;;;;;2.60;2.50;;;13.90;99.90;;;;;;10484657;28;20215;-81
2021/04/29 02:58:26;;;;;;;3.10;3.00;;;13.90;99.90;;;;;;10502552;28;20783;-81
2021/04/29 03:03:27;;;;;;;3.63;3.33;;;13.90;99.90;;;;;;10504166;28;20236;-82
2021/04/29 03:08:29;;;;;;;3.10;3.00;;;14.00;99.90;;;;;;10504404;28;20224;-82
2021/04/29 03:13:32;;;;;;;3.83;3.63;;;13.90;99.90;;;;;;10484314;28;20573;-81
2021/04/29 03:18:35;;;;;;;3.33;3.17;;;13.70;99.90;;;;;;10506182;28;20296;-82
2021/04/29 03:23:36;;;;;;;3.50;3.40;;;13.60;99.90;;;;;;10508607;28;20621;-81
2021/04/29 03:28:39;;;;;;;3.33;3.17;;;13.50;99.90;;;;;;10487104;28;20255;-83
2021/04/29 03:33:41;;;;;;;3.93;3.73;;;13.40;99.90;;;;;;10505032;28;20204;-82
2021/04/29 03:38:42;;;;;;;3.23;3.13;;;13.30;99.90;;;;;;10479442;28;20334;-82
2021/04/29 03:43:45;;;;;;;3.33;3.23;;;13.30;99.90;;;;;;10496395;28;20193;-83
2021/04/29 03:48:46;;;;;;;3.50;3.30;;;13.20;99.90;;;;;;10480114;28;20354;-83
2021/04/29 03:53:48;;;;;;;2.77;2.67;;;13.20;99.90;;;;;;10487300;28;20276;-83
2021/04/29 03:58:50;;;;;;;2.90;2.80;;;13.10;99.90;;;;;;10485723;28;20695;-83
2021/04/29 04:03:52;;;;;;;2.90;2.70;;;13.10;99.90;;;;;;10472078;28;20212;-81
2021/04/29 04:08:54;;;;;;;2.57;2.47;;;13.10;99.90;;;;;;10503468;28;20715;-81
2021/04/29 04:13:56;;;;;;;2.50;2.40;;;13.00;99.90;;;;;;10510461;28;20684;-82
2021/04/29 04:18:58;;;;;;;2.37;2.27;;;13.00;99.90;;;;;;10478540;28;20216;-81
2021/04/29 04:24:00;;;;;;;2.77;2.67;;;13.00;99.90;;;;;;10494216;28;20208;-80
2021/04/29 04:29:03;;;;;;;2.63;2.43;;;13.00;99.90;;;;;;10495856;28;20220;-81
2021/04/29 04:34:05;;;;;;;2.20;2.10;;;13.00;99.90;;;;;;10480779;28;20197;-81
2021/04/29 04:39:06;;;;;;;2.43;2.33;;;13.00;99.90;;;;;;10496330;28;20315;-81
2021/04/29 04:44:09;;;;;;;2.53;2.43;;;13.00;99.90;;;;;;10507760;28;20207;-80
2021/04/29 04:49:13;;;;;;;2.50;2.30;;;13.10;99.90;;;;;;10496081;28;20582;-82
2021/04/29 04:54:17;;;;;;;2.40;2.30;;;13.10;99.90;;;;;;10471195;28;20230;-81
2021/04/29 04:59:19;;;;;;;2.53;2.40;;;13.20;99.90;;;;;;10489102;28;20224;-80
2021/04/29 05:04:23;;;;;;;2.53;2.43;;;13.20;99.90;;;;;;10507531;28;20222;-82
2021/04/29 05:09:25;;;;;;;2.57;2.47;;;13.40;99.90;;;;;;10509711;28;20232;-81
2021/04/29 05:14:28;;;;;;;3.10;2.80;;;13.50;99.90;;;;;;10491601;28;20692;-82
2021/04/29 05:19:30;;;;;;;3.50;3.30;;;13.70;99.90;;;;;;10487284;28;20224;-81
2021/04/29 05:24:32;;;;;;;3.10;2.90;;;13.90;99.90;;;;;;10487752;28;20237;-82
2021/04/29 05:29:34;;;;;;;2.83;2.63;;;14.10;99.90;;;;;;10488681;28;20228;-81
2021/04/29 05:34:37;;;;;;;3.20;3.00;;;14.10;99.90;;;;;;10489190;28;20196;-82
2021/04/29 05:39:39;;;;;;;3.27;3.07;;;14.10;99.90;;;;;;10472325;28;20247;-81
2021/04/29 05:44:41;;;;;;;3.93;3.63;;;14.00;99.90;;;;;;10503994;28;20279;-81
2021/04/29 05:49:43;;;;;;;3.60;3.40;;;13.90;99.90;;;;;;10495730;28;20228;-82
2021/04/29 05:54:44;;;;;;;4.20;3.90;;;13.90;99.90;;;;;;10480756;28;20609;-82
2021/04/29 05:59:47;;;;;;;3.87;3.57;;;13.90;99.90;;;;;;10484709;28;20639;-81
2021/04/29 06:04:49;;;;;;;3.90;3.70;;;14.00;99.90;;;;;;10503149;28;20287;-82
2021/04/29 06:09:50;;;;;;;4.30;3.20;;;14.10;99.90;;;;;;10504333;28;20322;-81
2021/04/29 06:14:53;;;;;;;4.17;3.33;;;14.20;99.90;;;;;;10504630;28;20223;-82
2021/04/29 06:19:55;;;;;;;4.60;4.30;;;14.30;99.90;;;;;;10469459;28;20225;-82
2021/04/29 06:24:56;;;;;;;4.37;3.93;;;14.50;99.90;;;;;;10513989;28;20295;-81
2021/04/29 06:29:59;;;;;;;4.37;3.90;;;14.80;99.90;;;;;;10497280;28;20220;-82
2021/04/29 06:35:00;;;;;;;4.30;4.00;;;15.00;99.90;;;;;;10504590;28;20246;-82
2021/04/29 06:40:03;;;;;;;4.90;4.50;;;15.10;99.90;;;;;;10500778;28;20243;-81
2021/04/29 06:45:07;;;;;;;4.83;4.43;;;15.00;99.90;;;;;;10502335;28;20197;-81
2021/04/29 06:50:10;;;;;;;5.37;4.87;;;14.90;99.90;;;;;;10483782;28;20601;-81
2021/04/29 06:55:12;;;;;;;5.47;5.00;;;15.00;99.90;;;;;;10500279;28;20694;-81
2021/04/29 07:00:16;;;;;;;6.97;5.63;;;15.30;99.90;;;;;;10500138;28;20590;-81
2021/04/29 07:05:18;;;;;;;6.00;5.17;;;15.50;99.90;;;;;;10477224;28;20274;-81
2021/04/29 07:10:21;;;;;;;5.27;4.87;;;15.70;99.90;;;;;;10480084;28;20293;-81
2021/04/29 07:15:23;;;;;;;5.97;5.47;;;16.10;99.90;;;;;;10500918;28;20204;-81
2021/04/29 07:20:25;;;;;;;6.03;5.53;;;16.30;99.90;;;;;;10502830;28;20726;-82
2021/04/29 07:25:27;;;;;;;5.03;4.70;;;16.50;99.30;;;;;;10501460;28;20209;-82
2021/04/29 07:30:29;;;;;;;6.33;5.83;;;16.70;98.80;;;;;;10501451;28;20288;-82
2021/04/29 07:35:31;;;;;;;5.40;5.00;;;16.80;98.80;;;;;;10501254;28;20204;-82
2021/04/29 07:40:34;;;;;;;6.40;5.60;;;16.90;97.20;;;;;;10501911;28;20281;-82
2021/04/29 07:45:37;;;;;;;5.50;5.10;;;17.00;95.80;;;;;;10500791;28;20767;-82
2021/04/29 07:50:38;;;;;;;7.50;4.50;;;17.00;96.40;;;;;;10507064;28;20601;-82
2021/04/29 07:55:40;;;;;;;7.57;5.83;;;16.90;97.10;;;;;;10497019;28;20675;-81
2021/04/29 08:00:43;;;;;;;5.70;5.30;;;17.10;97.00;;;;;;10491888;28;20578;-82
2021/04/29 08:05:44;;;;;;;5.27;4.83;;;17.40;96.90;;;;;;10488263;28;20208;-82
2021/04/29 08:10:46;;;;;;;6.50;6.00;;;17.60;94.70;;;;;;10508940;28;20224;-82
2021/04/29 08:15:49;;;;;;;6.67;5.97;;;17.70;93.60;;;;;;10507255;28;20660;-82
2021/04/29 08:20:51;;;;;;;7.90;7.20;;;17.70;91.20;;;;;;10508686;28;20211;-82
2021/04/29 08:25:53;;;;;;;6.63;5.73;;;17.60;90.70;;;;;;10497666;28;20765;-80
2021/04/29 08:30:56;;;;;;;6.50;5.90;;;17.70;92.30;;;;;;10472868;28;20315;-82
2021/04/29 08:35:57;;;;;;;7.10;6.40;;;18.00;91.50;;;;;;10508823;28;20239;-82
2021/04/29 08:40:59;;;;;;;6.70;6.10;;;18.10;89.10;;;;;;10454959;28;20211;-81
2021/04/29 08:46:01;;;;;;;7.80;7.20;;;18.40;90.10;;;;;;10491728;28;20224;-82
2021/04/29 08:51:06;;;;;;;7.57;6.80;;;18.50;87.60;;;;;;10491619;28;20228;-82
2021/04/29 08:56:07;;;;;;;8.37;7.60;;;18.60;86.40;;;;;;10491742;28;20220;-82
2021/04/29 09:01:10;;;;;;;7.27;6.60;;;18.60;86.80;;;;;;10508673;28;20198;-81
2021/04/29 09:06:12;;;;;;;8.30;7.60;;;18.60;81.80;;;;;;10514701;28;20212;-80
2021/04/29 09:11:15;;;;;;;8.07;7.27;;;18.70;82.10;;;;;;10500542;28;20228;-81
2021/04/29 09:16:17;;;;;;;7.03;6.37;;;18.60;80.80;;;;;;10496975;28;20766;-80
2021/04/29 09:21:19;;;;;;;7.43;6.80;;;18.30;80.50;;;;;;10490998;28;20284;-81
2021/04/29 09:26:21;;;;;;;7.50;6.80;;;18.00;79.00;;;;;;10490147;28;20596;-81
2021/04/29 09:31:25;;;;;;;7.30;6.70;;;17.60;79.30;;;;;;10490373;28;20224;-81
2021/04/29 09:36:28;;;;;;;8.50;7.80;;;17.40;83.30;;;;;;10521653;22;20239;-77
2021/04/29 09:41:31;;;;;;;8.30;7.50;;;17.10;87.10;;;;;;10535877;28;20675;-77
2021/04/29 09:46:41;;;;;;;8.43;7.57;;;16.70;92.70;;;;;;10535057;28;20224;-77
2021/04/29 09:51:44;;;;;;;8.87;8.00;;;16.00;96.00;;;;;;10534792;28;20227;-77
2021/04/29 09:56:53;;;;;;;9.63;8.83;;;15.30;97.80;;;;;;10516349;28;20235;-77
2021/04/29 10:01:57;;;;;;;9.67;8.87;;;14.60;98.10;;;;;;10534944;28;20239;-77
2021/04/29 10:07:01;;;;;;;10.70;9.70;;;14.20;99.90;;;;;;10514310;28;20605;-77
2021/04/29 10:12:06;;;;;;;11.47;10.33;;;14.50;99.90;;;;;;10516702;28;20215;-77
2021/04/29 10:17:13;;;;;;;11.43;10.43;;;15.10;99.90;;;;;;10517079;28;20227;-77
2021/04/29 10:22:15;;;;;;;10.60;9.50;;;15.90;99.90;;;;;;10498943;28;20220;-77
2021/04/29 10:27:22;;;;;;;9.20;8.40;;;16.50;99.90;;;;;;10534165;28;20345;-77
2021/04/29 10:32:24;;;;;;;8.70;7.90;;;17.10;99.90;;;;;;10516481;28;20595;-77
2021/04/29 10:37:27;;;;;;;8.53;7.80;;;17.50;99.90;;;;;;10515550;28;20231;-77
2021/04/29 10:42:30;;;;;;;7.23;6.63;;;17.90;99.90;;;;;;10534026;28;20208;-77
2021/04/29 10:47:34;;;;;;;8.63;7.13;;;18.30;97.50;;;;;;10499210;28;20231;-77
2021/04/29 10:52:46;;;;;;;6.70;6.10;;;18.20;93.80;;;;;;10548532;28;20652;-77
2021/04/29 10:57:48;;;;;;;6.43;5.83;;;18.30;95.40;;;;;;10521448;28;20239;-77
2021/04/29 11:02:58;;;;;;;10.23;5.53;;;18.50;91.20;;;;;;10538849;28;20860;-78
2021/04/29 11:08:04;;;;;;;7.40;6.70;;;18.70;92.70;;;;;;10519699;28;20254;-78
2021/04/29 11:13:07;;;;;;;6.73;6.13;;;18.80;93.30;;;;;;10521155;28;20579;-78
2021/04/29 11:18:12;;;;;;;6.23;5.83;;;18.90;92.00;;;;;;10538725;28;20273;-77
2021/04/29 11:23:16;;;;;;;5.03;4.63;;;18.80;87.40;;;;;;10534688;28;20200;-77
2021/04/29 11:28:18;;;;;;;4.73;4.33;;;18.20;85.30;;;;;;10538001;28;20243;-77
2021/04/29 11:33:21;;;;;;;5.77;5.37;;;17.80;82.40;;;;;;10513023;28;20211;-77
2021/04/29 11:38:22;;;;;;;4.77;4.47;;;17.60;83.80;;;;;;10531071;28;20233;-77
2021/04/29 11:43:24;;;;;;;5.93;5.10;;;17.30;82.50;;;;;;10531127;28;20208;-77
2021/04/29 11:48:27;;;;;;;4.53;4.23;;;17.00;81.50;;;;;;10511749;28;20251;-77
2021/04/29 11:53:30;;;;;;;5.53;4.67;;;16.80;84.10;;;;;;10527968;28;20200;-77
2021/04/29 11:58:33;;;;;;;4.37;3.97;;;16.80;84.20;;;;;;10529527;28;20276;-77
2021/04/29 12:03:36;;;;;;;5.00;4.50;;;16.60;82.80;;;;;;10511554;28;20582;-77
2021/04/29 12:08:37;;;;;;;5.50;4.00;;;16.60;84.50;;;;;;10528715;28;20712;-77
2021/04/29 12:13:41;;;;;;;5.90;4.13;;;16.60;83.80;;;;;;10528679;28;20735;-77
2021/04/29 12:18:46;;;;;;;4.37;4.07;;;16.80;82.10;;;;;;10528864;28;20618;-77
2021/04/29 12:23:55;;;;;;;4.30;3.77;;;16.80;84.10;;;;;;10510930;28;20955;-77
2021/04/29 12:29:00;;;;;;;4.60;3.67;;;17.00;81.90;;;;;;10497947;28;20311;-77
2021/04/29 12:34:13;;;;;;;4.30;3.97;;;17.10;80.70;;;;;;10514305;28;20226;-77
2021/04/29 12:39:16;;;;;;;4.33;3.93;;;17.00;79.70;;;;;;10494510;28;20243;-77
2021/04/29 12:44:17;;;;;;;5.10;4.80;;;17.00;80.70;;;;;;10511916;28;20200;-77
2021/04/29 12:49:20;;;;;;;6.00;5.03;;;17.10;78.70;;;;;;10477732;28;20444;-77
2021/04/29 12:54:25;;;;;;;5.30;4.90;;;17.10;77.50;;;;;;10515219;28;20238;-77
2021/04/29 12:59:28;;;;;;;5.97;5.37;;;17.00;78.90;;;;;;10512200;28;20224;-77
2021/04/29 13:04:33;;;;;;;5.37;4.90;;;16.90;78.10;;;;;;10479308;28;21188;-77
2021/04/29 13:09:36;;;;;;;5.60;5.20;;;16.70;80.40;;;;;;10497316;28;20334;-77
2021/04/29 13:14:40;;;;;;;5.93;5.40;;;16.40;81.30;;;;;;10519132;28;20204;-77
2021/04/29 13:19:45;;;;;;;5.87;4.90;;;16.50;83.50;;;;;;10521088;28;20623;-77
2021/04/29 13:24:47;;;;;;;4.23;3.90;;;16.70;82.60;;;;;;10504423;28;20341;-77
2021/04/29 13:29:49;;;;;;;7.47;4.10;;;16.70;81.80;;;;;;10520253;28;20228;-77
2021/04/29 13:34:52;;;;;;;5.10;4.70;;;16.60;81.00;;;;;;10520947;28;20214;-77
2021/04/29 13:39:53;;;;;;;6.70;5.40;;;16.40;83.90;;;;;;10519058;28;20318;-77
2021/04/29 13:44:55;;;;;;;5.70;5.30;;;16.10;88.10;;;;;;10501792;28;20199;-77
2021/04/29 13:49:58;;;;;;;6.07;5.57;;;16.00;89.70;;;;;;10517614;28;20227;-77
2021/04/29 13:55:00;;;;;;;4.80;4.50;;;16.10;89.40;;;;;;10500895;28;21152;-77
2021/04/29 14:00:01;;;;;;;5.20;4.70;;;16.30;90.50;;;;;;10521809;28;20226;-77
2021/04/29 14:05:05;;;;;;;4.63;4.33;;;16.30;90.10;;;;;;10519831;28;20200;-77
2021/04/29 14:10:10;;;;;;;5.00;4.60;;;16.20;90.00;;;;;;10511572;28;20265;-77
2021/04/29 14:15:13;;;;;;;5.00;4.60;;;16.10;88.60;;;;;;10511007;28;20545;-77
2021/04/29 14:20:16;;;;;;;5.13;4.73;;;16.10;88.40;;;;;;10495591;28;20358;-77
2021/04/29 14:25:20;;;;;;;4.80;4.50;;;16.00;87.80;;;;;;10496072;28;20286;-77
2021/04/29 14:30:22;;;;;;;4.30;4.10;;;16.00;87.70;;;;;;10515648;28;20239;-77
2021/04/29 14:35:25;;;;;;;4.90;4.50;;;16.10;88.40;;;;;;10515161;28;20215;-77
2021/04/29 14:40:27;;;;;;;5.37;4.97;;;16.20;88.40;;;;;;10532967;28;20238;-77
2021/04/29 14:45:28;;;;;;;5.13;4.63;;;16.20;89.10;;;;;;10497902;28;20215;-77
2021/04/29 14:50:33;;;;;;;5.50;5.13;;;16.30;90.50;;;;;;10514999;28;20343;-77
2021/04/29 14:55:35;;;;;;;5.27;4.77;;;16.30;86.70;;;;;;10514916;28;20207;-77
2021/04/29 15:00:37;;;;;;;5.53;5.03;;;16.40;87.10;;;;;;10532857;28;20235;-77
2021/04/29 15:05:43;;;;;;;4.93;4.53;;;16.40;89.10;;;;;;10497585;28;20208;-77
2021/04/29 15:10:52;;;;;;;4.63;4.13;;;16.40;88.10;;;;;;10514126;28;20239;-77
2021/04/29 15:15:55;;;;;;;4.70;4.30;;;16.40;86.40;;;;;;10520357;28;20667;-77
2021/04/29 15:20:58;;;;;;;4.00;3.70;;;16.40;86.20;;;;;;10538128;28;20302;-77
2021/04/29 15:26:00;;;;;;;4.00;3.70;;;16.50;84.70;;;;;;10537491;28;20287;-78
2021/04/29 15:31:01;;;;;;;3.93;3.53;;;16.70;86.90;;;;;;10535115;28;20259;-78
2021/04/29 15:36:05;;;;;;;3.53;3.23;;;16.70;81.20;;;;;;10537673;28;20198;-78
2021/04/29 15:41:06;;;;;;;3.43;3.23;;;16.80;79.00;;;;;;10537814;28;20184;-77
2021/04/29 15:46:08;;;;;;;3.30;3.00;;;16.80;80.40;;;;;;10518862;28;20204;-78
2021/04/29 15:51:16;;;;;;;4.10;3.10;;;16.90;78.70;;;;;;10537261;28;20247;-77
2021/04/29 15:56:18;;;;;;;2.83;2.63;;;17.10;78.00;;;;;;10536254;28;20204;-78
2021/04/29 16:01:20;;;;;;;5.53;3.33;;;17.20;73.50;;;;;;10502102;28;20204;-77
2021/04/29 16:06:22;;;;;;;2.67;2.47;;;17.20;70.50;;;;;;10518655;28;20207;-78
2021/04/29 16:11:25;;;;;;;3.57;3.30;;;17.20;72.00;;;;;;10536353;28;20224;-77
2021/04/29 16:16:26;;;;;;;4.00;3.60;;;17.10;74.10;;;;;;10535490;28;20224;-78
2021/04/29 16:21:29;;;;;;;4.50;4.10;;;17.10;80.90;;;;;;10536080;28;20204;-78
2021/04/29 16:26:31;;;;;;;4.93;4.03;;;17.00;79.40;;;;;;10535425;28;20235;-78
2021/04/29 16:31:33;;;;;;;4.10;3.80;;;16.90;79.90;;;;;;10501508;28;20295;-78
2021/04/29 16:36:35;;;;;;;4.60;4.17;;;16.80;80.70;;;;;;10516942;28;20601;-78
2021/04/29 16:41:37;;;;;;;3.83;3.47;;;16.70;79.30;;;;;;10535509;28;20281;-78
2021/04/29 16:46:39;;;;;;;3.57;3.37;;;16.70;81.80;;;;;;10528730;28;20237;-78
2021/04/29 16:51:44;;;;;;;3.80;3.60;;;16.70;81.40;;;;;;10548961;28;20219;-78
2021/04/29 16:56:47;;;;;;;5.33;3.10;;;16.60;77.90;;;;;;10551366;28;20223;-79
2021/04/29 17:01:49;;;;;;;2.83;2.60;;;16.70;76.70;;;;;;10534064;28;20322;-79
2021/04/29 17:06:52;;;;;;;3.70;2.50;;;16.70;75.60;;;;;;10555301;28;20219;-79
2021/04/29 17:11:54;;;;;;;2.97;2.77;;;16.60;72.10;;;;;;10534469;28;20223;-79
2021/04/29 17:16:56;;;;;;;2.77;2.67;;;16.60;76.50;;;;;;10552805;28;20243;-79
2021/04/29 17:21:58;;;;;;;2.90;2.70;;;16.60;74.10;;;;;;10541286;28;20223;-79
2021/04/29 17:27:00;;;;;;;3.60;3.07;;;16.60;75.30;;;;;;10648318;22;20232;-80
2021/04/29 17:32:02;;;;;;;2.80;2.60;;;16.50;73.40;;;;;;10506659;28;20224;-81
2021/04/29 17:37:53;;;;;;;4.63;2.90;;;16.50;68.10;;;;;;10525228;22;20232;-81
2021/04/29 17:43:00;;;;;;;3.60;3.30;;;16.50;70.50;;;;;;10469918;28;20624;-79
2021/04/29 17:48:06;;;;;;;3.93;3.57;;;16.40;73.50;;;;;;10516807;28;20220;-80
2021/04/29 17:53:09;;;;;;;3.63;3.43;;;16.30;72.60;;;;;;10526654;28;20345;-80
2021/04/29 17:58:12;;;;;;;5.10;4.70;;;16.30;73.40;;;;;;10543304;28;20730;-80
2021/04/29 18:03:15;;;;;;;5.57;4.30;;;16.20;71.50;;;;;;10500633;28;20207;-80
2021/04/29 18:08:17;;;;;;;5.00;4.60;;;16.10;73.60;;;;;;10531255;28;20216;-79
2021/04/29 18:13:20;;;;;;;4.53;4.13;;;16.00;72.60;;;;;;10515076;28;20200;-79
2021/04/29 18:18:22;;;;;;;7.93;3.83;;;15.90;75.10;;;;;;10513204;28;20216;-79
2021/04/29 18:23:25;;;;;;;4.47;4.07;;;15.80;73.70;;;;;;10529968;28;20718;-79
2021/04/29 18:28:26;;;;;;;3.97;3.70;;;15.80;74.10;;;;;;10505794;28;20700;-79
2021/04/29 18:33:32;;;;;;;4.57;4.17;;;15.70;73.20;;;;;;10512729;28;20717;-79
2021/04/29 18:38:35;;;;;;;3.97;3.40;;;15.70;72.60;;;;;;10531388;28;20227;-79
2021/04/29 18:43:37;;;;;;;5.10;4.60;;;15.60;74.50;;;;;;10496152;28;20215;-79
2021/04/29 18:48:39;;;;;;;5.00;4.70;;;15.50;73.70;;;;;;10531026;28;20253;-79
2021/04/29 18:53:42;;;;;;;4.10;3.67;;;15.50;71.80;;;;;;10531490;28;20203;-79
2021/04/29 18:58:44;;;;;;;3.87;3.57;;;15.40;72.00;;;;;;10530779;28;20220;-79
2021/04/29 19:03:46;;;;;;;4.90;4.03;;;15.30;76.80;;;;;;10512468;28;20234;-79
2021/04/29 19:08:48;;;;;;;4.17;3.87;;;15.30;72.20;;;;;;10527222;28;20245;-79
2021/04/29 19:13:52;;;;;;;4.90;4.50;;;15.30;73.30;;;;;;10519591;28;20226;-79
2021/04/29 19:18:59;;;;;;;4.77;4.37;;;15.20;74.40;;;;;;10495210;28;20289;-79
2021/04/29 19:24:02;;;;;;;4.00;3.70;;;15.20;73.80;;;;;;10510196;28;20683;-79
2021/04/29 19:29:04;;;;;;;5.10;4.70;;;15.10;73.70;;;;;;10512215;28;20261;-79
2021/04/29 19:34:07;;;;;;;5.13;4.23;;;15.10;72.70;;;;;;10525993;28;20200;-79
2021/04/29 19:39:10;;;;;;;4.83;4.43;;;15.10;76.10;;;;;;10510198;28;20288;-79
2021/04/29 19:44:12;;;;;;;5.50;4.73;;;14.90;74.40;;;;;;10510978;28;20354;-79
2021/04/29 19:49:13;;;;;;;5.53;4.93;;;14.90;74.00;;;;;;10530276;28;20695;-78
2021/04/29 19:54:17;;;;;;;6.10;5.00;;;14.80;74.60;;;;;;10512799;28;20253;-79
2021/04/29 19:59:19;;;;;;;4.57;4.17;;;14.70;78.00;;;;;;10530167;28;20590;-80
2021/04/29 20:04:21;;;;;;;5.20;4.80;;;14.60;75.30;;;;;;10492476;28;20230;-80
2021/04/29 20:09:26;;;;;;;5.20;4.70;;;14.50;76.10;;;;;;10527695;28;20336;-79
2021/04/29 20:14:27;;;;;;;5.10;4.60;;;14.50;76.60;;;;;;10528529;28;20203;-79
2021/04/29 20:19:29;;;;;;;5.40;5.00;;;14.40;77.80;;;;;;10510949;28;20738;-79
2021/04/29 20:24:32;;;;;;;4.87;4.53;;;14.30;78.00;;;;;;10527870;28;20216;-79
2021/04/29 20:29:35;;;;;;;4.60;4.30;;;14.30;77.60;;;;;;10509511;28;20231;-79
2021/04/29 20:34:37;;;;;;;4.20;3.80;;;14.30;78.10;;;;;;10500580;28;20223;-79
2021/04/29 20:39:39;;;;;;;5.27;4.87;;;14.20;77.10;;;;;;10491079;28;20661;-79
2021/04/29 20:44:41;;;;;;;4.73;4.30;;;14.20;79.20;;;;;;10524964;28;20265;-79
2021/04/29 20:49:43;;;;;;;4.57;4.27;;;14.10;77.00;;;;;;10529125;28;20579;-79
2021/04/29 20:54:45;;;;;;;4.97;4.57;;;14.10;78.20;;;;;;10510065;28;20242;-79
2021/04/29 20:59:48;;;;;;;4.87;4.47;;;14.00;78.30;;;;;;10528187;28;20219;-79
2021/04/29 21:04:49;;;;;;;5.30;4.63;;;13.90;79.10;;;;;;10529934;28;20265;-78
2021/04/29 21:09:52;;;;;;;5.73;5.27;;;13.80;78.50;;;;;;10528836;28;20235;-80
2021/04/29 21:14:54;;;;;;;4.67;4.37;;;13.70;79.20;;;;;;10529099;28;20286;-79
2021/04/29 21:19:55;;;;;;;4.63;4.33;;;13.60;79.50;;;;;;10510576;28;20220;-79
2021/04/29 21:25:01;;;;;;;9.47;4.80;;;13.50;79.90;;;;;;10511956;28;20204;-79
2021/04/29 21:30:03;;;;;;;4.67;4.37;;;13.30;80.30;;;;;;10530727;28;20231;-79
2021/04/29 21:35:06;;;;;;;9.70;5.80;;;13.20;81.40;;;;;;10518861;28;20972;-79
2021/04/29 21:40:10;;;;;;;6.80;6.10;;;13.10;80.90;;;;;;10519540;28;20239;-79
2021/04/29 21:45:13;;;;;;;6.83;6.23;;;13.10;77.60;;;;;;10537165;28;20203;-79
2021/04/29 21:50:14;;;;;;;11.00;6.33;;;13.10;77.30;;;;;;10537111;28;20239;-79
2021/04/29 21:55:17;;;;;;;6.93;6.10;;;13.10;76.20;;;;;;10537069;28;20322;-79
2021/04/29 22:00:30;;;;;;;7.50;6.70;;;13.10;77.00;;;;;;10533367;28;20228;-79
2021/04/29 22:05:33;;;;;;;6.90;5.40;;;13.10;76.50;;;;;;10536684;28;20212;-79
2021/04/29 22:10:36;;;;;;;5.80;5.30;;;13.00;75.00;;;;;;10536530;28;20220;-79
2021/04/29 22:15:40;;;;;;;5.90;5.40;;;12.90;74.90;;;;;;10518783;28;20215;-79
2021/04/29 22:20:44;;;;;;;6.67;6.20;;;12.90;76.60;;;;;;10536529;28;20228;-79
2021/04/29 22:25:47;;;;;;;6.17;5.77;;;12.80;77.30;;;;;;10517775;28;20219;-79
2021/04/29 22:30:49;;;;;;;5.40;5.00;;;12.70;77.90;;;;;;10529521;28;20707;-78
2021/04/29 22:35:50;;;;;;;4.90;4.60;;;12.70;77.20;;;;;;10526033;28;20204;-79
2021/04/29 22:40:53;;;;;;;5.50;5.10;;;12.60;76.90;;;;;;10534733;28;20233;-78
2021/04/29 22:45:55;;;;;;;4.93;4.63;;;12.60;75.20;;;;;;10526371;28;20215;-78
2021/04/29 22:50:57;;;;;;;5.70;5.20;;;12.50;75.60;;;;;;10534494;28;20223;-78
2021/04/29 22:55:59;;;;;;;5.10;4.70;;;12.50;75.60;;;;;;10533039;28;20214;-78
2021/04/29 23:01:01;;;;;;;5.70;4.67;;;12.40;75.90;;;;;;10516725;28;20224;-78
2021/04/29 23:06:03;;;;;;;4.77;4.47;;;12.40;75.90;;;;;;10534746;28;20203;-79
2021/04/29 23:11:05;;;;;;;5.03;4.73;;;12.30;74.80;;;;;;10515841;28;20236;-78
2021/04/29 23:16:07;;;;;;;4.93;4.63;;;12.30;74.30;;;;;;10533570;28;20204;-78
2021/04/29 23:21:09;;;;;;;5.13;4.77;;;12.20;75.00;;;;;;10535315;28;20192;-78
2021/04/29 23:26:11;;;;;;;5.23;4.83;;;12.10;76.40;;;;;;10537369;28;20200;-78
2021/04/29 23:31:13;;;;;;;5.70;5.30;;;12.00;75.00;;;;;;10526959;28;20219;-78
2021/04/29 23:36:14;;;;;;;5.67;5.20;;;12.00;75.40;;;;;;10525891;28;20195;-78
2021/04/29 23:41:17;;;;;;;5.40;5.07;;;12.00;74.20;;;;;;10525591;28;20562;-78
2021/04/29 23:46:19;;;;;;;5.70;5.30;;;12.10;74.60;;;;;;10525075;28;20678;-78
2021/04/29 23:51:21;;;;;;;5.73;5.33;;;12.00;74.80;;;;;;10524293;28;20356;-78
2021/04/29 23:56:24;;;;;;;6.50;6.00;;;12.00;74.30;;;;;;10511866;28;20197;-78
